This is the latest recevied weather packets stored in our database for station/object DK6GC-10. If no packets are shown the sender has not sent any weather packets the latest 1 day(s).
| Time | Temp. | Humidity | Pressure | Rain* | Wind** | Luminosity | Snow |
|---|---|---|---|---|---|---|---|
| 1778082013 | 12.78° C | 88% | 1009.2 hPa | - | - | - | - |
| 1778081113 | 13.33° C | 88% | 1009.3 hPa | - | - | - | - |
| 1778077512 | 13.89° C | 85% | 1008.8 hPa | - | - | - | - |
| 1778075405 | 14.44° C | 85% | 1008.6 hPa | - | - | - | - |
| 1778071517 | 18.33° C | 60% | 1007.6 hPa | - | - | - | - |
| 1778070617 | 21.11° C | 53% | 1007.5 hPa | - | - | - | - |
| 1778067920 | 18.89° C | 59% | 1007.7 hPa | - | - | - | - |
| 1778067020 | 18.89° C | 58% | 1007.7 hPa | - | - | - | - |
| 1778063419 | 19.44° C | 63% | 1008.1 hPa | - | - | - | - |
| 1778062519 | 18.89° C | 62% | 1008.2 hPa | - | - | - | - |
| 1778061619 | 17.78° C | 66% | 1008.2 hPa | - | - | - | - |
| 1778058918 | 17.22° C | 68% | 1008.2 hPa | - | - | - | - |
| 1778058018 | 16.67° C | 71% | 1008.1 hPa | - | - | - | - |
| 1778057118 | 19.44° C | 62% | 1008.1 hPa | - | - | - | - |
| 1778053517 | 17.22° C | 70% | 1007.7 hPa | - | - | - | - |
| 1778052617 | 16.67° C | 71% | 1007.8 hPa | - | - | - | - |
| 1778051717 | 16.11° C | 75% | 1007.7 hPa | - | - | - | - |
| 1778043624 | 10.56° C | 90% | 1008 hPa | - | - | - | - |
| 1778042724 | 10° C | 90% | 1008 hPa | - | - | - | - |
| 1778041823 | 10° C | 90% | 1008 hPa | - | - | - | - |
| 1778040923 | 10° C | 90% | 1008.1 hPa | - | - | - | - |
| 1778040023 | 9.44° C | 90% | 1008 hPa | - | - | - | - |
| 1778039123 | 10° C | 90% | 1008.1 hPa | - | - | - | - |
| 1778038223 | 10° C | 90% | 1008.1 hPa | - | - | - | - |
| 1778037322 | 10.56° C | 90% | 1008.2 hPa | - | - | - | - |
* Rain since midnight (hover to see other rain measurements)
** Current wind speed in m/s (hover to see current wind gust speed)